Time;durP1;ratioP1;P1;durP2;ratioP2;P2;SDS_P1;SDS_P2;PMS_P1;PMS_P2;Temp;Humidity;BMP_temperature;BMP_pressure;BME280_temperature;BME280_humidity;BME280_pressure;Samples;Min_cycle;Max_cycle;Signal;HPM_P1;HPM_P2
2021/05/25 00:00:14;;;;;;;1.50;0.57;;;;;;;11.77;58.79;99673.25;2199355;40;20042;-78
2021/05/25 00:01:45;;;;;;;2.38;0.65;;;;;;;11.74;58.78;99685.13;2197887;40;20082;-78
2021/05/25 00:03:17;;;;;;;1.90;0.82;;;;;;;11.76;58.88;99683.13;2195987;40;20407;-78
2021/05/25 00:04:49;;;;;;;2.72;0.65;;;;;;;11.76;58.97;99682.28;2197579;40;20035;-79
2021/05/25 00:06:20;;;;;;;2.20;0.80;;;;;;;11.69;59.13;99677.59;2196311;40;20047;-79
2021/05/25 00:07:52;;;;;;;2.88;0.70;;;;;;;11.66;59.33;99683.25;2197778;40;20035;-80
2021/05/25 00:09:23;;;;;;;2.25;0.50;;;;;;;11.58;59.48;99685.03;2196554;40;20304;-80
2021/05/25 00:10:54;;;;;;;2.72;0.50;;;;;;;11.60;59.42;99669.66;2197487;40;20066;-79
2021/05/25 00:12:26;;;;;;;2.15;0.60;;;;;;;11.61;59.42;99674.88;2197972;40;20054;-80
2021/05/25 00:13:59;;;;;;;3.35;0.73;;;;;;;11.57;59.63;99667.34;2203873;40;20039;-79
2021/05/25 00:15:33;;;;;;;2.33;0.60;;;;;;;11.61;59.47;99664.16;2201702;40;20050;-79
2021/05/25 00:17:04;;;;;;;2.83;0.73;;;;;;;11.58;59.46;99659.13;2197221;40;20053;-79
2021/05/25 00:18:35;;;;;;;2.00;0.57;;;;;;;11.51;59.64;99648.22;2197442;40;20054;-79
2021/05/25 00:20:09;;;;;;;2.80;0.77;;;;;;;11.52;59.52;99651.75;2198120;40;20042;-80
2021/05/25 00:21:41;;;;;;;2.30;0.70;;;;;;;11.50;59.59;99651.88;2195607;40;20039;-79
2021/05/25 00:23:12;;;;;;;2.17;0.73;;;;;;;11.51;59.60;99663.44;2196537;40;20055;-79
2021/05/25 00:24:43;;;;;;;1.73;0.63;;;;;;;11.49;59.69;99668.94;2196750;40;20076;-80
2021/05/25 00:26:15;;;;;;;1.83;0.50;;;;;;;11.49;59.51;99678.81;2202445;40;20291;-78
2021/05/25 00:27:47;;;;;;;3.60;0.70;;;;;;;11.48;59.71;99685.19;2202452;40;20047;-80
2021/05/25 00:29:18;;;;;;;2.50;0.60;;;;;;;11.41;59.86;99684.16;2204256;40;20041;-79
2021/05/25 00:30:50;;;;;;;2.50;0.60;;;;;;;11.37;59.71;99672.91;2204738;40;20374;-78
2021/05/25 00:32:21;;;;;;;2.08;0.50;;;;;;;11.32;59.88;99680.56;2205459;40;20399;-79
2021/05/25 00:33:53;;;;;;;1.85;0.60;;;;;;;11.30;59.92;99683.41;2205195;40;20595;-79
2021/05/25 00:35:26;;;;;;;1.25;0.50;;;;;;;11.30;59.78;99683.41;2203012;40;20366;-79
2021/05/25 00:36:57;;;;;;;2.00;0.55;;;;;;;11.21;60.05;99679.00;2203931;40;20354;-79
2021/05/25 00:38:28;;;;;;;2.10;0.52;;;;;;;11.15;60.17;99674.28;2202418;40;20458;-79
2021/05/25 00:39:59;;;;;;;1.77;0.60;;;;;;;11.10;60.27;99674.75;2204278;40;20042;-79
2021/05/25 00:41:31;;;;;;;2.22;0.75;;;;;;;11.10;60.27;99673.91;2201919;40;20046;-78
2021/05/25 00:43:02;;;;;;;2.08;0.60;;;;;;;11.07;60.24;99669.72;2198676;40;20031;-79
2021/05/25 00:44:34;;;;;;;2.50;0.70;;;;;;;11.03;60.25;99671.88;2194291;40;20046;-79
2021/05/25 00:46:06;;;;;;;2.05;0.50;;;;;;;11.00;60.40;99672.19;2202393;40;20354;-78
2021/05/25 00:47:38;;;;;;;2.35;0.60;;;;;;;10.97;60.48;99672.50;2201956;40;20038;-79
2021/05/25 00:49:09;;;;;;;1.40;0.60;;;;;;;10.97;60.53;99672.50;2197968;40;20035;-78
2021/05/25 00:50:41;;;;;;;2.97;0.50;;;;;;;11.01;60.19;99679.22;2195813;40;20046;-79
2021/05/25 00:52:12;;;;;;;5.10;0.93;;;;;;;10.99;60.45;99673.19;2197336;40;20125;-79
2021/05/25 00:53:43;;;;;;;1.83;0.70;;;;;;;10.99;60.61;99670.50;2195872;40;20054;-80
2021/05/25 00:55:17;;;;;;;2.80;0.80;;;;;;;11.04;60.46;99659.34;2197220;40;20096;-79
2021/05/25 00:56:48;;;;;;;4.07;0.85;;;;;;;11.07;60.40;99661.69;2196405;40;20039;-78
2021/05/25 00:58:19;;;;;;;3.38;0.50;;;;;;;11.01;60.47;99663.16;2197981;40;20042;-78
2021/05/25 00:59:50;;;;;;;2.55;0.90;;;;;;;11.01;60.66;99667.66;2195099;40;20144;-79
2021/05/25 01:01:25;;;;;;;4.25;0.80;;;;;;;10.99;60.56;99670.50;2197671;40;20034;-79
2021/05/25 01:02:56;;;;;;;3.78;0.63;;;;;;;10.99;60.61;99665.16;2190504;40;20055;-79
2021/05/25 01:04:28;;;;;;;3.80;0.70;;;;;;;10.95;60.65;99669.16;2192078;40;20031;-79
2021/05/25 01:05:59;;;;;;;3.33;0.57;;;;;;;10.93;60.47;99671.97;2167899;40;20420;-78
2021/05/25 01:07:31;;;;;;;2.70;0.90;;;;;;;10.99;60.50;99673.19;2192318;40;20095;-78
2021/05/25 01:09:02;;;;;;;2.15;0.68;;;;;;;11.01;60.20;99673.00;2196942;40;20055;-78
2021/05/25 01:10:35;;;;;;;2.33;0.73;;;;;;;11.04;60.13;99683.41;2197828;40;20043;-79
2021/05/25 01:12:09;;;;;;;2.10;0.50;;;;;;;11.11;59.86;99678.28;2198957;40;20071;-79
2021/05/25 01:13:44;;;;;;;1.58;0.60;;;;;;;11.12;59.45;99680.78;2197379;40;20053;-79
2021/05/25 01:15:18;;;;;;;1.75;0.60;;;;;;;11.11;59.43;99668.41;2197453;40;20110;-80
2021/05/25 01:16:50;;;;;;;2.60;0.90;;;;;;;11.09;59.19;99681.13;2198246;40;20056;-80
2021/05/25 01:18:22;;;;;;;2.72;0.80;;;;;;;11.03;59.49;99676.38;2182619;40;20031;-79
2021/05/25 01:19:53;;;;;;;2.60;0.60;;;;;;;11.11;59.08;99675.59;2195977;40;20034;-79
2021/05/25 01:21:26;;;;;;;2.65;0.60;;;;;;;11.11;58.65;99678.28;2195029;40;20529;-79
2021/05/25 01:22:58;;;;;;;1.88;0.60;;;;;;;11.07;58.38;99681.25;2196122;40;20055;-79
2021/05/25 01:24:31;;;;;;;3.88;0.70;;;;;;;11.04;58.76;99692.28;2195990;40;20049;-79
2021/05/25 01:26:03;;;;;;;1.95;0.50;;;;;;;11.02;58.81;99690.75;2197601;40;20038;-80
2021/05/25 01:27:35;;;;;;;3.60;0.93;;;;;;;10.97;59.15;99691.22;2198628;40;20054;-79
2021/05/25 01:29:06;;;;;;;2.53;0.60;;;;;;;10.93;58.95;99695.22;2203349;40;20037;-81
2021/05/25 01:30:40;;;;;;;2.38;0.68;;;;;;;10.93;58.94;99684.50;2180853;40;20063;-79
2021/05/25 01:32:11;;;;;;;2.10;0.68;;;;;;;10.90;58.91;99695.50;2197171;40;20054;-79
2021/05/25 01:33:43;;;;;;;2.95;0.60;;;;;;;10.85;58.99;99689.81;2196055;40;20054;-81
2021/05/25 01:35:15;;;;;;;2.45;0.77;;;;;;;10.89;58.83;99688.47;2197432;40;20035;-80
2021/05/25 01:36:47;;;;;;;2.10;0.60;;;;;;;10.93;58.61;99693.34;2193989;40;20051;-79
2021/05/25 01:38:20;;;;;;;2.85;0.68;;;;;;;10.93;58.59;99693.34;2195065;40;20043;-79
2021/05/25 01:39:54;;;;;;;2.53;0.93;;;;;;;10.92;58.56;99680.97;2195954;40;20042;-80
2021/05/25 01:41:26;;;;;;;2.22;0.60;;;;;;;10.93;58.48;99692.53;2197752;40;20031;-79
2021/05/25 01:42:57;;;;;;;3.38;0.80;;;;;;;10.90;58.45;99698.19;2209801;40;20140;-79
2021/05/25 01:44:28;;;;;;;2.53;0.63;;;;;;;10.89;58.33;99688.47;2203852;40;20035;-78
2021/05/25 01:46:00;;;;;;;4.05;0.90;;;;;;;10.87;58.30;99694.00;2197475;40;20038;-80
2021/05/25 01:47:32;;;;;;;1.98;0.60;;;;;;;10.89;58.14;99694.69;2197022;40;20049;-79
2021/05/25 01:49:04;;;;;;;3.45;0.73;;;;;;;10.91;58.15;99691.84;2204119;40;20034;-78
2021/05/25 01:50:36;;;;;;;2.03;0.70;;;;;;;10.90;58.10;99687.50;2203234;40;20677;-79
2021/05/25 01:52:07;;;;;;;2.55;0.80;;;;;;;11.00;57.49;99690.09;2209712;40;20034;-79
2021/05/25 01:53:39;;;;;;;2.80;0.63;;;;;;;11.07;57.38;99688.44;2209933;40;20108;-79
2021/05/25 01:55:11;;;;;;;2.17;0.60;;;;;;;11.16;57.04;99689.31;2210369;40;20060;-79
2021/05/25 01:56:48;;;;;;;2.03;0.40;;;;;;;11.21;56.83;99685.19;2211380;40;20140;-79
2021/05/25 01:58:22;;;;;;;3.90;0.70;;;;;;;11.24;56.57;99692.91;2196351;40;20069;-78
2021/05/25 01:59:53;;;;;;;3.15;0.80;;;;;;;11.24;56.38;99692.09;2198236;40;20082;-78
2021/05/25 02:01:24;;;;;;;3.20;0.70;;;;;;;11.27;56.20;99694.41;2203386;40;20023;-79
2021/05/25 02:02:56;;;;;;;4.53;1.00;;;;;;;11.27;56.02;99691.75;2210279;40;20172;-79
2021/05/25 02:04:27;;;;;;;2.75;0.80;;;;;;;11.29;55.90;99692.44;2208620;40;20053;-79
2021/05/25 02:05:58;;;;;;;3.00;0.80;;;;;;;11.29;55.93;99692.44;2202118;40;20050;-79
2021/05/25 02:07:29;;;;;;;2.33;0.60;;;;;;;11.31;55.98;99689.59;2203404;40;20402;-79
2021/05/25 02:09:02;;;;;;;3.00;0.80;;;;;;;11.36;55.70;99698.00;2206975;40;20057;-79
2021/05/25 02:10:35;;;;;;;3.03;0.80;;;;;;;11.33;55.61;99696.50;2210107;40;20038;-80
2021/05/25 02:12:07;;;;;;;1.67;0.52;;;;;;;11.38;55.76;99696.84;2196598;40;20430;-80
2021/05/25 02:13:39;;;;;;;8.13;0.95;;;;;;;11.39;55.63;99698.53;2198235;40;20496;-81
2021/05/25 02:15:12;;;;;;;5.38;0.80;;;;;;;11.43;55.35;99696.38;2191430;40;20474;-80
2021/05/25 02:16:43;;;;;;;1.92;0.70;;;;;;;11.42;55.20;99707.22;2198204;40;20035;-79
2021/05/25 02:18:17;;;;;;;4.82;0.82;;;;;;;11.38;55.43;99706.72;2198496;40;20042;-80
2021/05/25 02:19:48;;;;;;;4.38;1.00;;;;;;;11.29;55.58;99702.31;2198712;40;20042;-79
2021/05/25 02:21:21;;;;;;;3.63;0.80;;;;;;;11.18;55.75;99709.59;2197924;40;20077;-80
2021/05/25 02:22:52;;;;;;;4.35;1.27;;;;;;;11.12;56.02;99709.38;2201421;40;20166;-80
2021/05/25 02:24:24;;;;;;;2.92;0.70;;;;;;;11.11;56.25;99710.38;2196207;40;20054;-79
2021/05/25 02:25:57;;;;;;;3.95;0.88;;;;;;;11.04;56.37;99702.13;2197161;40;20039;-80
2021/05/25 02:27:28;;;;;;;2.50;0.50;;;;;;;11.03;56.43;99706.66;2196210;40;20066;-79
2021/05/25 02:28:59;;;;;;;2.90;0.70;;;;;;;11.04;56.68;99708.34;2197059;40;20042;-78
2021/05/25 02:30:31;;;;;;;2.92;0.70;;;;;;;10.96;56.79;99700.22;2195595;40;20118;-79
2021/05/25 02:32:02;;;;;;;2.33;0.63;;;;;;;10.95;56.92;99695.91;2200984;40;20045;-79
2021/05/25 02:33:34;;;;;;;2.53;0.68;;;;;;;10.93;57.12;99705.91;2202239;40;20049;-79
2021/05/25 02:35:06;;;;;;;4.53;1.50;;;;;;;10.90;57.17;99703.53;2199103;40;20408;-79
2021/05/25 02:36:37;;;;;;;3.15;0.57;;;;;;;10.87;57.33;99706.50;2190301;40;20083;-80
2021/05/25 02:38:10;;;;;;;4.00;0.90;;;;;;;10.81;57.21;99709.81;2191516;40;20039;-80
2021/05/25 02:39:42;;;;;;;3.85;0.73;;;;;;;10.77;57.70;99715.47;2190095;40;20058;-79
2021/05/25 02:41:14;;;;;;;3.80;0.70;;;;;;;10.76;57.66;99700.44;2191444;40;20059;-79
2021/05/25 02:42:46;;;;;;;2.70;0.80;;;;;;;10.74;57.85;99705.09;2125955;40;20047;-80
2021/05/25 02:44:18;;;;;;;3.53;0.70;;;;;;;10.74;57.89;99709.59;2157312;40;20745;-79
2021/05/25 02:45:56;;;;;;;2.33;0.60;;;;;;;10.70;57.96;99713.56;2184067;40;20095;-80
2021/05/25 02:47:27;;;;;;;4.80;0.90;;;;;;;10.71;58.11;99712.59;2184368;40;20044;-80
2021/05/25 02:48:59;;;;;;;2.40;0.70;;;;;;;10.71;58.00;99716.09;2198038;40;20049;-78
2021/05/25 02:50:31;;;;;;;4.60;0.88;;;;;;;10.69;58.05;99712.72;2196121;40;20038;-79
2021/05/25 02:52:02;;;;;;;2.08;0.73;;;;;;;10.65;57.98;99722.06;2199186;40;20031;-79
2021/05/25 02:53:34;;;;;;;2.40;0.70;;;;;;;10.71;58.05;99721.44;2200871;40;20042;-80
2021/05/25 02:55:08;;;;;;;4.03;0.80;;;;;;;10.80;57.93;99721.50;2207278;40;20034;-79
2021/05/25 02:56:41;;;;;;;2.28;0.57;;;;;;;10.80;57.83;99714.34;2210865;40;20038;-79
2021/05/25 02:58:12;;;;;;;1.83;0.60;;;;;;;10.81;58.26;99723.19;2214425;40;20081;-80
2021/05/25 02:59:43;;;;;;;3.38;0.70;;;;;;;10.84;58.34;99712.19;2213231;40;20194;-81
2021/05/25 03:01:14;;;;;;;4.18;0.85;;;;;;;10.84;58.80;99728.22;2214369;40;20132;-81
2021/05/25 03:02:45;;;;;;;4.32;1.23;;;;;;;10.85;58.76;99711.19;2205174;40;20054;-79
2021/05/25 03:04:17;;;;;;;3.22;0.70;;;;;;;10.88;58.90;99706.38;2209142;40;20065;-79
2021/05/25 03:05:49;;;;;;;4.78;0.90;;;;;;;10.88;58.98;99710.88;2208477;40;20050;-78
2021/05/25 03:07:21;;;;;;;2.42;0.70;;;;;;;10.90;58.85;99719.56;2196571;40;20447;-79
2021/05/25 03:08:53;;;;;;;2.45;0.82;;;;;;;10.82;59.05;99716.84;2193563;40;20039;-78
2021/05/25 03:10:27;;;;;;;2.90;0.80;;;;;;;10.79;59.00;99720.66;2203634;40;20035;-80
2021/05/25 03:11:58;;;;;;;3.95;1.38;;;;;;;10.83;58.72;99723.88;2204594;40;20054;-79
2021/05/25 03:13:30;;;;;;;3.20;0.88;;;;;;;10.82;58.47;99722.19;2204434;40;20315;-80
2021/05/25 03:15:02;;;;;;;3.50;0.60;;;;;;;10.80;57.80;99724.16;2202731;40;20058;-80
2021/05/25 03:16:33;;;;;;;2.42;0.75;;;;;;;10.76;58.04;99719.16;2203611;40;20089;-79
2021/05/25 03:18:05;;;;;;;2.88;0.75;;;;;;;10.74;57.76;99713.13;2202758;40;20046;-79
2021/05/25 03:19:36;;;;;;;2.65;0.80;;;;;;;10.71;57.64;99720.59;2205153;40;20022;-78
2021/05/25 03:21:08;;;;;;;4.63;0.93;;;;;;;10.65;57.61;99730.06;2162141;40;20041;-80
2021/05/25 03:22:40;;;;;;;3.80;0.80;;;;;;;10.58;57.50;99723.66;2207327;40;20045;-80
2021/05/25 03:24:11;;;;;;;3.72;1.00;;;;;;;10.55;57.51;99721.28;2208040;40;20046;-80
2021/05/25 03:25:44;;;;;;;2.08;0.65;;;;;;;10.54;57.20;99728.44;2204975;40;20498;-80
2021/05/25 03:27:16;;;;;;;2.10;0.50;;;;;;;10.53;57.02;99726.75;2203981;40;20452;-81
2021/05/25 03:28:48;;;;;;;3.78;0.88;;;;;;;10.56;56.61;99721.13;2206877;40;20624;-79
2021/05/25 03:30:22;;;;;;;3.53;0.80;;;;;;;10.50;56.23;99726.22;2204166;40;20396;-79
2021/05/25 03:31:53;;;;;;;3.08;0.50;;;;;;;10.50;56.50;99724.41;2206133;40;20097;-80
2021/05/25 03:33:24;;;;;;;1.98;0.63;;;;;;;10.53;56.48;99733.97;2202594;40;20050;-80
2021/05/25 03:34:55;;;;;;;2.90;0.65;;;;;;;10.50;56.41;99731.56;2206118;40;20033;-79
2021/05/25 03:36:26;;;;;;;2.17;0.52;;;;;;;10.53;56.46;99734.78;2207828;40;20053;-79
2021/05/25 03:37:58;;;;;;;6.53;0.82;;;;;;;10.49;56.72;99732.56;2211346;40;20088;-80
2021/05/25 03:39:29;;;;;;;2.50;0.70;;;;;;;10.45;56.68;99729.34;2210198;40;20049;-80
2021/05/25 03:41:01;;;;;;;3.00;0.93;;;;;;;10.47;56.77;99724.72;2211343;40;20042;-79
2021/05/25 03:42:32;;;;;;;5.03;0.88;;;;;;;10.44;56.67;99728.53;2210062;40;20053;-80
2021/05/25 03:44:05;;;;;;;4.38;0.63;;;;;;;10.43;56.85;99731.38;2212046;40;20053;-80
2021/05/25 03:45:37;;;;;;;7.10;0.80;;;;;;;10.42;56.91;99733.19;2208846;40;20131;-80
2021/05/25 03:47:08;;;;;;;4.13;0.80;;;;;;;10.42;56.92;99722.50;2205724;40;20034;-82
2021/05/25 03:48:40;;;;;;;4.82;1.33;;;;;;;10.44;56.83;99731.22;2203484;40;20137;-79
2021/05/25 03:50:13;;;;;;;3.40;0.73;;;;;;;10.48;56.82;99733.59;2206174;40;20041;-78
2021/05/25 03:51:45;;;;;;;3.40;1.17;;;;;;;10.45;56.84;99732.91;2202128;40;20046;-79
2021/05/25 03:53:16;;;;;;;2.70;0.63;;;;;;;10.47;56.72;99731.91;2209393;40;20041;-78
2021/05/25 03:54:50;;;;;;;5.63;0.70;;;;;;;10.49;56.89;99727.22;2208823;40;20049;-80
2021/05/25 03:56:29;;;;;;;3.67;0.73;;;;;;;10.44;56.94;99730.34;2201269;40;20034;-79
2021/05/25 03:59:50;;;;;;;3.33;0.80;;;;;;;10.40;57.07;99734.34;2207517;40;20038;-79
2021/05/25 04:01:24;;;;;;;4.22;0.80;;;;;;;10.42;57.10;99737.69;2205563;40;20107;-79
2021/05/25 04:02:55;;;;;;;4.18;0.90;;;;;;;10.48;56.83;99736.25;2196571;40;20101;-80
2021/05/25 04:04:26;;;;;;;2.40;0.70;;;;;;;10.49;56.69;99727.22;2198960;40;20031;-79
2021/05/25 04:05:58;;;;;;;1.85;0.55;;;;;;;10.44;56.79;99736.56;2206361;40;20049;-79
2021/05/25 04:07:41;;;;;;;5.05;0.70;;;;;;;10.48;56.98;99736.25;2207999;40;20035;-80
2021/05/25 04:09:13;;;;;;;1.77;0.57;;;;;;;10.49;56.90;99737.91;2207050;40;20050;-79
2021/05/25 04:10:44;;;;;;;2.70;0.70;;;;;;;10.48;57.02;99741.59;2207694;40;20046;-78
2021/05/25 04:12:16;;;;;;;3.28;0.60;;;;;;;10.50;57.12;99744.94;2206307;40;20042;-79
2021/05/25 04:13:48;;;;;;;4.07;1.00;;;;;;;10.51;56.92;99746.63;2207385;40;20046;-78
2021/05/25 04:15:20;;;;;;;2.97;0.73;;;;;;;10.55;56.82;99751.50;2205495;40;20701;-79
2021/05/25 04:16:51;;;;;;;3.85;0.80;;;;;;;10.54;56.74;99746.34;2211960;40;20030;-80
2021/05/25 04:18:22;;;;;;;3.92;0.85;;;;;;;10.53;56.76;99756.16;2209089;40;20062;-79
2021/05/25 04:19:53;;;;;;;3.75;0.82;;;;;;;10.59;56.51;99754.72;2208303;40;20022;-79
2021/05/25 04:21:25;;;;;;;2.58;0.70;;;;;;;10.58;56.55;99753.06;2202008;40;20327;-79
2021/05/25 04:22:55;;;;;;;3.28;0.70;;;;;;;10.61;56.49;99750.94;2203186;40;20038;-78
2021/05/25 04:24:27;;;;;;;3.05;0.70;;;;;;;10.60;56.40;99756.41;2195880;40;20066;-78
2021/05/25 04:25:58;;;;;;;6.57;0.80;;;;;;;10.60;56.42;99757.25;2201859;40;20093;-79
2021/05/25 04:27:30;;;;;;;5.15;1.10;;;;;;;10.67;56.20;99752.16;2202921;40;20346;-80
2021/05/25 04:29:02;;;;;;;3.22;0.80;;;;;;;10.75;55.90;99756.72;2206305;40;20095;-79
2021/05/25 04:30:33;;;;;;;4.47;0.77;;;;;;;10.81;56.12;99773.97;2209231;40;20058;-79
2021/05/25 04:32:06;;;;;;;3.63;0.90;;;;;;;10.84;56.34;99776.38;2207523;40;20050;-78
2021/05/25 04:33:38;;;;;;;4.07;1.13;;;;;;;10.84;56.71;99771.00;2202779;40;20034;-79
2021/05/25 04:35:11;;;;;;;3.78;0.90;;;;;;;10.74;57.06;99771.94;2204232;40;20694;-80
2021/05/25 04:36:42;;;;;;;4.32;1.35;;;;;;;10.68;57.59;99769.84;2202367;40;20042;-79
2021/05/25 04:38:14;;;;;;;4.25;0.90;;;;;;;10.74;57.39;99771.94;2204610;40;20050;-79
2021/05/25 04:39:45;;;;;;;4.15;0.95;;;;;;;10.79;57.88;99770.63;2202314;40;20140;-78
2021/05/25 04:41:16;;;;;;;3.13;1.08;;;;;;;10.80;58.15;99778.50;2203415;40;20392;-78
2021/05/25 04:42:48;;;;;;;3.03;0.82;;;;;;;10.79;58.55;99778.63;2206261;40;20049;-80
2021/05/25 04:44:19;;;;;;;3.40;0.70;;;;;;;10.69;59.05;99776.06;2204458;40;20093;-78
2021/05/25 04:45:50;;;;;;;5.45;1.33;;;;;;;10.72;58.96;99781.09;2178353;40;20078;-78
2021/05/25 04:47:22;;;;;;;3.67;1.08;;;;;;;10.77;59.09;99781.47;2198428;40;20082;-79
2021/05/25 04:48:53;;;;;;;4.00;1.20;;;;;;;10.79;59.01;99782.16;2204477;40;20042;-79
2021/05/25 04:50:25;;;;;;;7.95;0.80;;;;;;;10.79;58.97;99792.00;2202211;40;20033;-78
2021/05/25 04:51:55;;;;;;;3.55;0.93;;;;;;;10.76;59.02;99788.66;2206803;40;20065;-79
2021/05/25 04:53:27;;;;;;;2.92;0.80;;;;;;;10.81;58.85;99790.03;2205992;40;20110;-80
2021/05/25 04:54:58;;;;;;;4.45;1.27;;;;;;;10.83;58.70;99793.41;2204487;40;20141;-79
2021/05/25 04:56:30;;;;;;;3.65;0.95;;;;;;;10.81;58.48;99800.72;2204946;40;20030;-80
2021/05/25 04:58:03;;;;;;;4.43;0.93;;;;;;;10.73;58.62;99788.97;2209998;40;20081;-79
2021/05/25 04:59:35;;;;;;;4.68;0.93;;;;;;;10.64;58.72;99799.72;2207303;40;20031;-79
2021/05/25 05:01:06;;;;;;;3.63;0.98;;;;;;;10.52;58.79;99796.41;2209558;40;20053;-80
2021/05/25 05:02:37;;;;;;;5.05;0.93;;;;;;;10.45;59.12;99802.38;2208534;40;20038;-79
2021/05/25 05:04:09;;;;;;;5.03;0.73;;;;;;;10.40;58.91;99801.97;2204175;40;20030;-79
2021/05/25 05:05:40;;;;;;;4.63;0.82;;;;;;;10.38;58.75;99811.13;2203415;40;20042;-79
2021/05/25 05:07:11;;;;;;;4.45;0.90;;;;;;;10.35;58.80;99803.38;2200868;40;20037;-79
2021/05/25 05:08:44;;;;;;;3.13;0.90;;;;;;;10.36;58.65;99802.38;2202735;40;20057;-79
2021/05/25 05:10:17;;;;;;;4.55;0.70;;;;;;;10.35;59.00;99811.38;2208411;40;20022;-79
2021/05/25 05:11:48;;;;;;;4.07;0.98;;;;;;;10.35;58.77;99817.59;2209497;40;20072;-80
2021/05/25 05:13:20;;;;;;;4.30;0.82;;;;;;;10.35;58.78;99814.06;2206188;40;20058;-80
2021/05/25 05:14:51;;;;;;;3.08;0.60;;;;;;;10.36;58.84;99813.94;2192104;40;20053;-80
2021/05/25 05:16:23;;;;;;;6.65;1.00;;;;;;;10.34;59.24;99815.91;2204592;40;20942;-79
2021/05/25 05:17:54;;;;;;;3.17;0.90;;;;;;;10.36;59.15;99819.28;2202371;40;20065;-79
2021/05/25 05:19:25;;;;;;;5.80;0.80;;;;;;;10.39;59.57;99812.81;2203549;40;20031;-80
2021/05/25 05:20:57;;;;;;;4.32;0.82;;;;;;;10.41;59.68;99810.84;2204901;40;20030;-79
2021/05/25 05:22:29;;;;;;;3.47;0.90;;;;;;;10.34;59.66;99821.25;2205265;40;20461;-80
2021/05/25 05:24:00;;;;;;;5.97;1.10;;;;;;;10.34;59.71;99826.59;2193432;40;20499;-79
2021/05/25 05:25:31;;;;;;;3.90;0.73;;;;;;;10.31;59.80;99816.19;2204073;40;20315;-80
2021/05/25 05:27:03;;;;;;;3.88;0.80;;;;;;;10.33;59.82;99824.06;2202406;40;20335;-80
2021/05/25 05:28:35;;;;;;;2.72;0.77;;;;;;;10.36;60.12;99837.13;2207802;40;20034;-79
2021/05/25 05:30:08;;;;;;;7.53;1.25;;;;;;;10.36;59.78;99834.44;2207332;40;20123;-80
2021/05/25 05:31:46;;;;;;;3.55;0.75;;;;;;;10.39;59.54;99824.34;2210874;40;20026;-78
2021/05/25 05:33:17;;;;;;;3.42;0.80;;;;;;;10.42;59.23;99828.56;2208857;40;20061;-78
2021/05/25 05:34:48;;;;;;;3.70;1.05;;;;;;;10.41;58.92;99838.38;2209618;40;20423;-79
2021/05/25 05:36:19;;;;;;;4.07;0.68;;;;;;;10.39;58.55;99837.69;2208834;40;20076;-79
2021/05/25 05:37:50;;;;;;;2.67;0.70;;;;;;;10.45;58.28;99833.59;2210039;40;20038;-79
2021/05/25 05:39:22;;;;;;;3.45;0.95;;;;;;;10.49;57.55;99839.47;2209350;40;20465;-79
2021/05/25 05:40:55;;;;;;;3.25;0.85;;;;;;;10.47;57.33;99833.47;2207740;40;20034;-79
2021/05/25 05:42:27;;;;;;;2.88;0.68;;;;;;;10.49;57.14;99850.16;2209190;40;20058;-79
2021/05/25 05:43:58;;;;;;;3.83;0.60;;;;;;;10.52;57.05;99841.84;2210252;40;20042;-78
2021/05/25 05:45:30;;;;;;;3.83;0.80;;;;;;;10.56;57.11;99845.94;2208546;40;20046;-79
2021/05/25 05:47:02;;;;;;;2.67;0.63;;;;;;;10.59;57.11;99834.91;2206118;40;20035;-79
2021/05/25 05:48:34;;;;;;;4.63;0.60;;;;;;;10.62;56.85;99845.31;2203123;40;20581;-79
2021/05/25 05:50:10;;;;;;;6.50;2.10;;;;;;;10.64;56.97;99837.13;2203713;40;20034;-79
2021/05/25 05:51:42;;;;;;;4.85;0.98;;;;;;;10.65;56.51;99841.50;2197115;40;20042;-79
2021/05/25 05:53:12;;;;;;;7.22;1.63;;;;;;;10.65;56.10;99845.03;2199192;40;20043;-79
2021/05/25 05:54:44;;;;;;;4.68;0.77;;;;;;;10.67;55.98;99842.19;2202287;40;20726;-78
2021/05/25 05:56:17;;;;;;;4.63;0.70;;;;;;;10.67;55.78;99840.38;2204253;40;20039;-77
2021/05/25 05:57:48;;;;;;;6.78;0.95;;;;;;;10.71;55.83;99840.91;2199539;40;20038;-76
2021/05/25 05:59:20;;;;;;;2.67;0.80;;;;;;;10.79;55.72;99841.00;2204941;40;20058;-78
2021/05/25 06:00:52;;;;;;;2.83;0.63;;;;;;;10.81;55.33;99841.69;2203770;40;20619;-78
2021/05/25 06:02:24;;;;;;;1.90;0.60;;;;;;;10.77;55.00;99840.28;2203650;40;20068;-78
2021/05/25 06:03:55;;;;;;;3.72;0.85;;;;;;;10.83;55.05;99846.88;2204403;40;20035;-77
2021/05/25 06:05:26;;;;;;;5.22;0.80;;;;;;;10.92;54.73;99856.66;2203233;40;20046;-78
2021/05/25 06:06:57;;;;;;;3.90;0.73;;;;;;;10.95;54.05;99856.38;2204369;40;20041;-77
2021/05/25 06:08:29;;;;;;;3.88;0.77;;;;;;;10.91;53.78;99863.81;2192461;40;20513;-78
2021/05/25 06:10:01;;;;;;;3.22;0.75;;;;;;;10.91;53.52;99852.31;2198665;40;20038;-77
2021/05/25 06:11:33;;;;;;;4.68;0.60;;;;;;;10.92;53.79;99851.31;2205022;40;20076;-78
2021/05/25 06:13:05;;;;;;;2.58;0.50;;;;;;;10.97;53.85;99850.84;2204832;40;20050;-77
2021/05/25 06:14:37;;;;;;;2.60;0.77;;;;;;;11.02;53.63;99843.19;2202514;40;20034;-77
2021/05/25 06:16:09;;;;;;;2.95;0.57;;;;;;;11.05;53.48;99851.75;2204771;40;20066;-79
2021/05/25 06:17:40;;;;;;;4.30;0.63;;;;;;;11.04;53.11;99852.78;2202590;40;20101;-78
2021/05/25 06:19:11;;;;;;;4.75;0.60;;;;;;;11.05;52.47;99850.94;2204135;40;20045;-78
2021/05/25 06:20:42;;;;;;;5.97;2.38;;;;;;;11.11;52.42;99854.84;2201899;40;20331;-78
2021/05/25 06:22:13;;;;;;;3.95;1.25;;;;;;;11.14;52.06;99852.69;2204308;40;20058;-78
2021/05/25 06:23:44;;;;;;;2.63;0.80;;;;;;;11.15;52.05;99848.16;2202433;40;20050;-78
2021/05/25 06:25:16;;;;;;;3.47;0.70;;;;;;;11.13;52.17;99848.34;2203868;40;20038;-78
2021/05/25 06:26:48;;;;;;;3.15;0.60;;;;;;;11.14;51.61;99849.19;2203508;40;20057;-77
2021/05/25 06:28:19;;;;;;;8.13;1.05;;;;;;;11.23;51.52;99853.63;2203814;40;20054;-77
2021/05/25 06:29:51;;;;;;;2.80;0.80;;;;;;;11.33;51.35;99842.81;2202070;40;20049;-78
2021/05/25 06:31:23;;;;;;;7.03;0.82;;;;;;;11.39;50.81;99837.69;2202587;40;20047;-77
2021/05/25 06:32:54;;;;;;;6.97;0.65;;;;;;;11.39;50.54;99848.41;2184032;40;20035;-78
2021/05/25 06:34:26;;;;;;;2.17;0.60;;;;;;;11.39;50.15;99844.88;2203836;40;20053;-78
2021/05/25 06:35:57;;;;;;;3.28;0.60;;;;;;;11.35;50.44;99857.72;2202889;40;20464;-77
2021/05/25 06:37:28;;;;;;;4.10;0.70;;;;;;;11.37;50.41;99845.03;2206846;40;20031;-78
2021/05/25 06:38:59;;;;;;;3.97;0.80;;;;;;;11.42;50.40;99849.09;2206817;40;20034;-78
2021/05/25 06:40:31;;;;;;;6.45;0.80;;;;;;;11.47;50.29;99855.66;2204993;40;20418;-78
2021/05/25 06:42:03;;;;;;;2.35;0.70;;;;;;;11.49;50.13;99847.47;2202824;40;20042;-78
2021/05/25 06:43:35;;;;;;;3.20;0.85;;;;;;;11.47;49.98;99860.16;2203779;40;20089;-79
2021/05/25 06:45:09;;;;;;;4.10;0.70;;;;;;;11.39;50.20;99853.75;2203309;40;20026;-78
2021/05/25 06:46:41;;;;;;;4.43;0.70;;;;;;;11.41;49.90;99852.75;2202918;40;20419;-78
2021/05/25 06:48:12;;;;;;;5.22;0.80;;;;;;;11.37;49.97;99847.72;2201722;40;20378;-78
2021/05/25 06:49:43;;;;;;;6.20;0.95;;;;;;;11.44;49.84;99852.44;2204002;40;20494;-78
2021/05/25 06:51:14;;;;;;;2.20;0.63;;;;;;;11.48;49.45;99845.78;2202904;40;20089;-78
2021/05/25 06:52:46;;;;;;;4.40;0.80;;;;;;;11.49;49.00;99848.28;2205067;40;20049;-79
2021/05/25 06:54:17;;;;;;;3.38;0.70;;;;;;;11.48;48.86;99851.97;2202098;40;20242;-78
2021/05/25 06:55:48;;;;;;;2.75;1.00;;;;;;;11.48;48.69;99840.44;2204207;40;20058;-78
2021/05/25 06:57:19;;;;;;;2.08;0.60;;;;;;;11.48;49.14;99845.78;2202676;40;20019;-78
2021/05/25 06:58:50;;;;;;;2.72;0.70;;;;;;;11.50;49.26;99857.19;2204351;40;20284;-78
2021/05/25 07:00:23;;;;;;;2.65;1.30;;;;;;;11.51;49.34;99851.66;2203043;40;20057;-77
2021/05/25 07:01:55;;;;;;;2.38;0.80;;;;;;;11.54;49.22;99863.88;2203108;40;20136;-79
2021/05/25 07:03:26;;;;;;;4.53;0.57;;;;;;;11.55;49.38;99858.41;2206019;40;20046;-78
2021/05/25 07:04:57;;;;;;;2.05;0.63;;;;;;;11.54;49.30;99854.03;2204065;40;20315;-78
2021/05/25 07:06:29;;;;;;;3.53;0.60;;;;;;;11.53;48.93;99860.38;2182898;40;20042;-78
2021/05/25 07:08:01;;;;;;;18.35;1.75;;;;;;;11.51;48.91;99861.53;2202995;40;20054;-78
2021/05/25 07:09:32;;;;;;;2.78;0.55;;;;;;;11.51;48.91;99856.19;2202775;40;20384;-79
2021/05/25 07:11:04;;;;;;;4.18;0.70;;;;;;;11.51;48.91;99862.38;2203536;40;20046;-79
2021/05/25 07:12:35;;;;;;;3.10;0.80;;;;;;;11.48;48.77;99872.56;2203022;40;20057;-79
2021/05/25 07:14:07;;;;;;;2.83;0.50;;;;;;;11.45;48.91;99859.47;2203926;40;20033;-78